Argenta, Texas
Current Conditions -  °F | °C
As of 6:50 PM on Tuesday 21 Oct 2014 (Local Time) from KRBO Reporting Station
Light Rain Light Rain  
Wind Chill: 78°   Ceiling: Unl
Heat Index: 80°   Visibility: 10mi
Dew Point: 68°   Wind: 13mph
Humidity: 71%   Direction: 80°E
Pressure: 29.96"   Gusts: NA
Location:  28.0654°N, 97.7489°W
Report Text: KRBO 212350Z AUTO 08011KT 10SM -RA CLR 26/20 A2996 RMK AO2 T02550200 10291 20255
Loading
Personal Weather Stations






























Interactive Weather Map
Tropical Storm Tracking
New forecast layout! Learn more

10-Day Weather Forecast

Advertisements
Track Severe Weather on mobile